createdAt,value
2018-03-24T00:00:05.048Z,0
2018-03-24T00:00:45.640Z,0
2018-03-24T00:01:26.239Z,0
2018-03-24T00:02:06.897Z,0
2018-03-24T00:02:47.456Z,0
2018-03-24T00:03:28.297Z,0
2018-03-24T00:04:09.181Z,0
2018-03-24T00:04:49.823Z,0
2018-03-24T00:05:30.561Z,0
2018-03-24T00:06:11.218Z,0
2018-03-24T00:06:51.776Z,0
2018-03-24T00:07:32.408Z,0
2018-03-24T00:08:12.974Z,0
2018-03-24T00:08:53.550Z,0
2018-03-24T00:09:34.108Z,0
2018-03-24T00:10:14.929Z,0
2018-03-24T00:10:56.414Z,0
2018-03-24T00:12:54.260Z,0
2018-03-24T00:13:34.861Z,0
2018-03-24T00:14:15.427Z,0
2018-03-24T00:14:56.067Z,0
2018-03-24T00:15:36.585Z,0
2018-03-24T00:16:17.168Z,0
2018-03-24T00:16:57.760Z,0
2018-03-24T00:17:38.381Z,0
2018-03-24T00:18:18.934Z,0
2018-03-24T00:18:59.517Z,0
2018-03-24T00:19:40.075Z,0
2018-03-24T00:20:20.785Z,0
2018-03-24T00:21:01.391Z,0
2018-03-24T00:21:42.031Z,0
2018-03-24T00:22:22.644Z,0
2018-03-24T00:23:03.218Z,0
2018-03-24T00:23:43.808Z,0
2018-03-24T00:24:24.372Z,0
2018-03-24T00:25:05.653Z,0
2018-03-24T00:25:46.201Z,0
2018-03-24T00:26:26.746Z,0
2018-03-24T00:27:07.302Z,0
2018-03-24T00:27:47.862Z,0
2018-03-24T00:28:28.436Z,0
2018-03-24T00:29:09.004Z,0
2018-03-24T00:29:49.611Z,0
2018-03-24T00:30:30.225Z,0
2018-03-24T00:31:10.862Z,0
2018-03-24T00:31:51.509Z,0
2018-03-24T00:32:32.024Z,0
2018-03-24T00:33:12.593Z,0
2018-03-24T00:33:53.226Z,0
2018-03-24T00:34:33.811Z,0
2018-03-24T00:35:14.361Z,0
2018-03-24T00:35:54.946Z,0
2018-03-24T00:36:35.529Z,0
2018-03-24T00:37:16.130Z,0
2018-03-24T00:37:56.705Z,0
2018-03-24T00:38:37.258Z,0
2018-03-24T00:39:17.836Z,0
2018-03-24T00:39:58.389Z,0
2018-03-24T00:40:38.942Z,0
2018-03-24T00:41:19.503Z,0
2018-03-24T00:42:00.053Z,0
2018-03-24T00:42:40.725Z,0
2018-03-24T00:43:21.286Z,0
2018-03-24T00:44:01.840Z,0
2018-03-24T00:44:42.445Z,0
2018-03-24T00:45:22.983Z,0
2018-03-24T00:46:03.560Z,0
2018-03-24T00:46:44.107Z,0
2018-03-24T00:47:24.654Z,0
2018-03-24T00:48:05.214Z,0
2018-03-24T00:48:45.782Z,0
2018-03-24T00:49:26.339Z,0
2018-03-24T00:50:06.900Z,0
2018-03-24T00:50:47.481Z,0
2018-03-24T00:51:28.038Z,0
2018-03-24T00:52:08.582Z,0
2018-03-24T00:52:49.169Z,0
2018-03-24T00:53:29.741Z,0
2018-03-24T00:54:10.292Z,0
2018-03-24T00:54:50.847Z,0
2018-03-24T00:55:31.406Z,0
2018-03-24T00:56:11.977Z,0
2018-03-24T00:56:52.523Z,0
2018-03-24T00:57:33.116Z,0
2018-03-24T00:58:13.699Z,0
2018-03-24T00:58:54.267Z,0
2018-03-24T00:59:34.887Z,0
2018-03-24T01:00:15.470Z,0
2018-03-24T01:00:56.047Z,0
2018-03-24T01:01:36.630Z,0
2018-03-24T01:02:17.247Z,0
2018-03-24T01:02:57.810Z,0
2018-03-24T01:03:38.379Z,0
2018-03-24T01:04:18.998Z,0
2018-03-24T01:04:59.556Z,0
2018-03-24T01:05:40.126Z,0
2018-03-24T01:06:20.731Z,0
2018-03-24T01:07:01.293Z,0
2018-03-24T01:07:41.849Z,0
2018-03-24T01:08:22.464Z,0
2018-03-24T01:09:03.015Z,0
2018-03-24T01:09:43.578Z,0
2018-03-24T01:10:24.129Z,0
2018-03-24T01:11:04.676Z,0
2018-03-24T01:11:45.224Z,0
2018-03-24T01:12:25.797Z,0
2018-03-24T01:13:06.356Z,0
2018-03-24T01:13:46.907Z,0
2018-03-24T01:14:27.474Z,0
2018-03-24T01:15:08.044Z,0
2018-03-24T01:15:48.596Z,0
2018-03-24T01:16:29.145Z,0
2018-03-24T01:17:09.699Z,0
2018-03-24T01:17:50.260Z,0
2018-03-24T01:18:30.816Z,0
2018-03-24T01:19:11.473Z,0
2018-03-24T01:19:52.009Z,0
2018-03-24T01:20:32.566Z,0
2018-03-24T01:21:13.142Z,0
2018-03-24T01:21:53.684Z,0
2018-03-24T01:22:34.240Z,0
2018-03-24T01:23:14.799Z,0
2018-03-24T01:23:55.386Z,0
2018-03-24T01:24:35.964Z,0
2018-03-24T01:25:16.522Z,0
2018-03-24T01:25:57.079Z,0
2018-03-24T01:26:37.630Z,0
2018-03-24T01:27:18.192Z,0
2018-03-24T01:27:58.782Z,0
2018-03-24T01:28:39.360Z,0
2018-03-24T01:29:20.057Z,0
2018-03-24T01:30:00.601Z,0
2018-03-24T01:30:41.191Z,0
2018-03-24T01:31:21.747Z,0
2018-03-24T01:32:02.415Z,0
2018-03-24T01:32:42.977Z,0
2018-03-24T01:33:23.587Z,0
2018-03-24T01:34:04.147Z,0
2018-03-24T01:34:44.701Z,0
2018-03-24T01:35:25.270Z,0
2018-03-24T01:36:05.822Z,0
2018-03-24T01:36:46.386Z,0
2018-03-24T01:37:26.945Z,0
2018-03-24T01:38:07.501Z,0
2018-03-24T01:38:48.058Z,0
2018-03-24T01:39:28.613Z,0
2018-03-24T01:40:09.175Z,0
2018-03-24T01:40:49.734Z,0
2018-03-24T01:41:30.345Z,0
2018-03-24T01:42:10.902Z,0
2018-03-24T01:42:51.454Z,0
2018-03-24T01:43:32.012Z,0
2018-03-24T01:44:12.556Z,0
2018-03-24T01:44:53.111Z,0
2018-03-24T01:45:33.667Z,0
2018-03-24T01:46:14.217Z,0
2018-03-24T01:46:54.773Z,0
2018-03-24T01:47:35.400Z,0
2018-03-24T01:48:15.964Z,0
2018-03-24T01:48:56.511Z,0
2018-03-24T01:49:37.075Z,0
2018-03-24T01:50:17.642Z,0
2018-03-24T01:50:58.203Z,0
2018-03-24T01:51:38.775Z,0
2018-03-24T01:52:19.360Z,0
2018-03-24T01:52:59.904Z,0
2018-03-24T01:53:40.474Z,0
2018-03-24T01:54:21.040Z,0
2018-03-24T01:55:01.600Z,0
2018-03-24T01:55:42.167Z,0
2018-03-24T01:56:22.716Z,0
2018-03-24T01:57:03.282Z,0
2018-03-24T01:57:43.849Z,0
2018-03-24T01:58:24.400Z,0
2018-03-24T01:59:04.962Z,0
2018-03-24T01:59:45.520Z,0
2018-03-24T02:00:26.073Z,0
2018-03-24T02:01:06.646Z,0
2018-03-24T02:01:47.198Z,0
2018-03-24T02:02:27.783Z,0
2018-03-24T02:03:08.331Z,0
2018-03-24T02:03:48.884Z,0
2018-03-24T02:04:29.437Z,0
2018-03-24T02:05:10.063Z,0
2018-03-24T02:05:50.634Z,0
2018-03-24T02:06:31.187Z,0
2018-03-24T02:07:11.767Z,0
2018-03-24T02:07:52.346Z,0
2018-03-24T02:08:32.912Z,0
2018-03-24T02:09:13.482Z,0
2018-03-24T02:09:54.083Z,0
2018-03-24T02:10:34.639Z,0
2018-03-24T02:11:15.196Z,0
2018-03-24T02:11:55.773Z,0
2018-03-24T02:12:36.327Z,0
2018-03-24T02:13:16.892Z,0
2018-03-24T02:13:57.444Z,0
2018-03-24T02:14:38.029Z,0
2018-03-24T02:15:18.622Z,0
2018-03-24T02:15:59.203Z,0
2018-03-24T02:16:39.767Z,0
2018-03-24T02:17:20.333Z,0
2018-03-24T02:18:00.895Z,0
2018-03-24T02:18:41.452Z,0
2018-03-24T02:19:22.009Z,0
2018-03-24T02:20:02.573Z,0
2018-03-24T02:20:43.118Z,0
2018-03-24T02:21:23.690Z,0
2018-03-24T02:22:04.282Z,0
2018-03-24T02:22:44.847Z,0
2018-03-24T02:23:25.414Z,0
2018-03-24T02:24:05.983Z,0
2018-03-24T02:24:46.550Z,0
2018-03-24T02:25:27.098Z,0
2018-03-24T02:26:07.650Z,0
2018-03-24T02:26:48.201Z,0
2018-03-24T02:27:28.776Z,0
2018-03-24T02:28:09.334Z,0
2018-03-24T02:28:49.886Z,0
2018-03-24T02:29:30.463Z,0
2018-03-24T02:30:11.016Z,0
2018-03-24T02:30:51.605Z,0
2018-03-24T02:31:32.145Z,0
2018-03-24T02:32:12.688Z,0
2018-03-24T02:32:53.236Z,0
2018-03-24T02:33:33.794Z,0
2018-03-24T02:34:14.366Z,0
2018-03-24T02:34:54.922Z,0
2018-03-24T02:35:35.483Z,0
2018-03-24T02:36:16.129Z,0
2018-03-24T02:36:56.681Z,0
2018-03-24T02:37:37.252Z,0
2018-03-24T02:38:17.817Z,0
2018-03-24T02:38:58.370Z,0
2018-03-24T02:39:38.924Z,0
2018-03-24T02:40:19.522Z,0
2018-03-24T02:41:00.115Z,0
2018-03-24T02:41:40.700Z,0
2018-03-24T02:42:21.243Z,0
2018-03-24T02:43:01.798Z,0
2018-03-24T02:43:42.351Z,0
2018-03-24T02:44:22.936Z,0
2018-03-24T02:45:03.475Z,0
2018-03-24T02:45:44.020Z,0
2018-03-24T02:46:24.581Z,0
2018-03-24T02:47:05.137Z,0
2018-03-24T02:47:45.696Z,0
2018-03-24T02:48:26.263Z,0
2018-03-24T02:49:06.849Z,0
2018-03-24T02:49:47.397Z,0
2018-03-24T02:50:27.953Z,0
2018-03-24T02:51:08.526Z,0
2018-03-24T02:51:49.106Z,0
2018-03-24T02:52:29.645Z,0
2018-03-24T02:53:10.226Z,0
2018-03-24T02:53:50.847Z,0
2018-03-24T02:54:31.358Z,0
2018-03-24T02:55:11.895Z,0
2018-03-24T02:55:52.450Z,0
2018-03-24T02:56:33.000Z,0
2018-03-24T02:57:13.551Z,0
2018-03-24T02:57:54.120Z,0
2018-03-24T02:58:34.674Z,0
2018-03-24T02:59:15.268Z,0
2018-03-24T02:59:55.901Z,0
2018-03-24T03:00:36.449Z,0
2018-03-24T03:01:17.006Z,0
2018-03-24T03:01:57.586Z,0
2018-03-24T03:02:38.155Z,0
2018-03-24T03:03:18.715Z,0
2018-03-24T03:03:59.280Z,0
2018-03-24T03:04:39.947Z,0
2018-03-24T03:05:20.421Z,0
2018-03-24T03:06:00.965Z,0
2018-03-24T03:06:41.498Z,0
2018-03-24T03:07:22.092Z,0
2018-03-24T03:08:02.663Z,0
2018-03-24T03:08:43.213Z,0
2018-03-24T03:09:23.773Z,0
2018-03-24T03:10:04.360Z,0
2018-03-24T03:10:44.917Z,0
2018-03-24T03:11:25.506Z,0
2018-03-24T03:12:06.065Z,0
2018-03-24T03:12:46.616Z,0
2018-03-24T03:13:27.179Z,0
2018-03-24T03:14:07.847Z,0
2018-03-24T03:14:48.418Z,0
2018-03-24T03:15:28.972Z,0
2018-03-24T03:16:09.529Z,0
2018-03-24T03:16:50.102Z,0
2018-03-24T03:17:30.677Z,0
2018-03-24T03:18:11.236Z,0
2018-03-24T03:18:51.790Z,0
2018-03-24T03:19:32.385Z,0
2018-03-24T03:20:12.955Z,0
2018-03-24T03:20:53.513Z,0
2018-03-24T03:21:34.114Z,0
2018-03-24T03:22:14.664Z,0
2018-03-24T03:22:55.222Z,0
2018-03-24T03:23:35.776Z,0
2018-03-24T03:24:16.383Z,0
2018-03-24T03:24:56.965Z,0
2018-03-24T03:25:37.532Z,0
2018-03-24T03:26:18.103Z,0
2018-03-24T03:26:58.658Z,0
2018-03-24T03:27:39.216Z,0
2018-03-24T03:28:19.772Z,0
2018-03-24T03:29:00.349Z,0
2018-03-24T03:29:40.876Z,0
2018-03-24T03:30:21.457Z,0
2018-03-24T03:31:02.010Z,0
2018-03-24T03:31:42.572Z,0
2018-03-24T03:32:23.115Z,0
2018-03-24T03:33:03.685Z,0
2018-03-24T03:33:44.235Z,0
2018-03-24T03:34:24.884Z,0
2018-03-24T03:35:05.569Z,0
2018-03-24T03:35:46.125Z,0
2018-03-24T03:36:26.724Z,0
2018-03-24T03:37:07.297Z,0
2018-03-24T03:37:47.878Z,0
2018-03-24T03:38:28.432Z,0
2018-03-24T03:39:08.994Z,0
2018-03-24T03:39:49.570Z,0
2018-03-24T03:40:30.115Z,0
2018-03-24T03:41:10.686Z,0
2018-03-24T03:41:51.326Z,0
2018-03-24T03:42:31.883Z,0
2018-03-24T03:43:12.442Z,0
2018-03-24T03:43:52.993Z,0
2018-03-24T03:44:33.556Z,0
2018-03-24T03:45:14.116Z,0
2018-03-24T03:45:54.672Z,0
2018-03-24T03:46:35.211Z,0
2018-03-24T03:47:15.763Z,0
2018-03-24T03:47:56.342Z,0
2018-03-24T03:48:37.038Z,0
2018-03-24T03:49:17.591Z,0
2018-03-24T03:49:58.193Z,0
2018-03-24T03:50:38.752Z,0
2018-03-24T03:51:19.322Z,0
2018-03-24T03:51:59.908Z,0
2018-03-24T03:52:40.458Z,0
2018-03-24T03:53:21.047Z,0
2018-03-24T03:54:01.604Z,0
2018-03-24T03:54:42.205Z,0
2018-03-24T03:55:22.751Z,0
2018-03-24T03:56:03.327Z,0
2018-03-24T03:56:43.887Z,0
2018-03-24T03:57:24.463Z,0
2018-03-24T03:58:05.019Z,0
2018-03-24T03:58:45.583Z,0
2018-03-24T03:59:26.144Z,0
2018-03-24T04:00:06.715Z,0
2018-03-24T04:00:47.275Z,0
2018-03-24T04:01:27.927Z,0
2018-03-24T04:02:08.483Z,0
2018-03-24T04:02:49.033Z,0
2018-03-24T04:03:29.594Z,0
2018-03-24T04:04:10.164Z,0
2018-03-24T04:04:50.721Z,0
2018-03-24T04:05:31.275Z,0
2018-03-24T04:06:11.834Z,0
2018-03-24T04:06:52.391Z,0
2018-03-24T04:07:32.954Z,0
2018-03-24T04:08:13.493Z,0
2018-03-24T04:08:54.042Z,0
2018-03-24T04:09:34.595Z,0
2018-03-24T04:10:15.157Z,0
2018-03-24T04:10:55.697Z,0
2018-03-24T04:11:36.345Z,0
2018-03-24T04:12:16.944Z,0
2018-03-24T04:12:57.496Z,0
2018-03-24T04:13:38.051Z,0
2018-03-24T04:14:18.606Z,0
2018-03-24T04:14:59.164Z,0
2018-03-24T04:15:39.731Z,0
2018-03-24T04:16:20.290Z,0
2018-03-24T04:17:00.856Z,0
2018-03-24T04:17:41.460Z,0
2018-03-24T04:18:22.027Z,0
2018-03-24T04:19:02.582Z,0
2018-03-24T04:19:43.145Z,0
2018-03-24T04:20:23.700Z,0
2018-03-24T04:21:04.251Z,0
2018-03-24T04:21:44.837Z,0
2018-03-24T04:22:25.393Z,0
2018-03-24T04:23:05.942Z,0
2018-03-24T04:23:46.529Z,0
2018-03-24T04:24:27.079Z,0
2018-03-24T04:25:07.648Z,0
2018-03-24T04:25:48.188Z,0
2018-03-24T04:26:28.758Z,0
2018-03-24T04:27:09.328Z,0
2018-03-24T04:27:49.866Z,0
2018-03-24T04:28:30.446Z,0
2018-03-24T04:29:11.019Z,0
2018-03-24T04:29:51.565Z,0
2018-03-24T04:30:32.134Z,0
2018-03-24T04:31:12.690Z,0
2018-03-24T04:31:53.258Z,0
2018-03-24T04:32:33.815Z,0
2018-03-24T04:33:14.378Z,0
2018-03-24T04:33:54.962Z,0
2018-03-24T04:34:35.535Z,0
2018-03-24T04:35:16.103Z,0
2018-03-24T04:35:56.655Z,0
2018-03-24T04:36:37.236Z,0
2018-03-24T04:37:17.805Z,0
2018-03-24T04:37:58.357Z,4
2018-03-24T04:38:38.914Z,4
2018-03-24T04:39:19.459Z,4
2018-03-24T04:40:00.015Z,0
2018-03-24T04:40:40.570Z,0
2018-03-24T04:41:21.112Z,4
2018-03-24T04:42:01.673Z,4
2018-03-24T04:42:42.241Z,4
2018-03-24T04:43:22.818Z,4
2018-03-24T04:44:03.538Z,0
2018-03-24T04:44:44.117Z,4
2018-03-24T04:45:24.677Z,4
2018-03-24T04:46:05.239Z,4
2018-03-24T04:46:45.847Z,4
2018-03-24T04:47:26.412Z,4
2018-03-24T04:48:06.973Z,8
2018-03-24T04:48:47.529Z,8
2018-03-24T04:49:28.080Z,4
2018-03-24T04:50:08.635Z,8
2018-03-24T04:50:49.196Z,8
2018-03-24T04:51:29.752Z,12
2018-03-24T04:52:10.316Z,8
2018-03-24T04:52:50.868Z,12
2018-03-24T04:53:31.422Z,12
2018-03-24T04:54:11.987Z,16
2018-03-24T04:54:52.548Z,12
2018-03-24T04:55:33.102Z,16
2018-03-24T04:56:13.658Z,16
2018-03-24T04:56:54.260Z,16
2018-03-24T04:57:34.810Z,16
2018-03-24T04:58:15.356Z,20
2018-03-24T04:58:55.927Z,16
2018-03-24T04:59:36.523Z,20
2018-03-24T05:00:17.075Z,20
2018-03-24T05:00:57.624Z,24
2018-03-24T05:01:38.191Z,20
2018-03-24T05:02:18.749Z,24
2018-03-24T05:02:59.312Z,28
2018-03-24T05:03:39.892Z,28
2018-03-24T05:04:20.444Z,28
2018-03-24T05:05:01.053Z,32
2018-03-24T05:05:41.633Z,36
2018-03-24T05:06:22.373Z,36
2018-03-24T05:07:02.800Z,40
2018-03-24T05:07:43.367Z,40
2018-03-24T05:08:23.915Z,44
2018-03-24T05:09:04.471Z,48
2018-03-24T05:09:45.049Z,48
2018-03-24T05:10:25.609Z,52
2018-03-24T05:11:06.160Z,56
2018-03-24T05:11:46.766Z,60
2018-03-24T05:12:27.368Z,60
2018-03-24T05:13:07.940Z,68
2018-03-24T05:13:48.501Z,68
2018-03-24T05:14:29.090Z,72
2018-03-24T05:15:09.682Z,76
2018-03-24T05:15:50.245Z,76
2018-03-24T05:16:30.816Z,84
2018-03-24T05:17:11.364Z,84
2018-03-24T05:17:51.914Z,88
2018-03-24T05:18:32.469Z,92
2018-03-24T05:19:13.025Z,100
2018-03-24T05:19:53.581Z,104
2018-03-24T05:20:34.136Z,108
2018-03-24T05:21:14.694Z,116
2018-03-24T05:21:55.249Z,124
2018-03-24T05:22:35.822Z,132
2018-03-24T05:25:08.992Z,152
2018-03-24T05:25:49.556Z,160
2018-03-24T05:26:30.126Z,164
2018-03-24T05:27:10.726Z,168
2018-03-24T05:27:51.296Z,172
2018-03-24T05:28:31.850Z,176
2018-03-24T05:29:12.447Z,184
2018-03-24T05:29:53.002Z,192
2018-03-24T05:30:33.565Z,200
2018-03-24T05:31:14.112Z,208
2018-03-24T05:31:54.674Z,220
2018-03-24T05:32:35.241Z,232
2018-03-24T05:33:15.800Z,240
2018-03-24T05:33:56.362Z,244
2018-03-24T05:34:36.936Z,252
2018-03-24T05:35:17.502Z,260
2018-03-24T05:35:58.047Z,268
2018-03-24T05:36:38.607Z,280
2018-03-24T05:37:19.179Z,284
2018-03-24T05:37:59.706Z,296
2018-03-24T05:38:40.327Z,304
2018-03-24T05:39:20.888Z,308
2018-03-24T05:40:01.551Z,312
2018-03-24T05:40:42.168Z,320
2018-03-24T05:41:22.738Z,328
2018-03-24T05:42:03.299Z,332
2018-03-24T05:42:43.855Z,336
2018-03-24T05:43:24.408Z,340
2018-03-24T05:44:05.083Z,344
2018-03-24T05:44:45.649Z,348
2018-03-24T05:45:26.213Z,352
2018-03-24T05:46:06.839Z,356
2018-03-24T05:46:47.395Z,360
2018-03-24T05:47:27.961Z,372
2018-03-24T05:48:08.525Z,380
2018-03-24T05:48:49.121Z,384
2018-03-24T05:49:29.669Z,392
2018-03-24T05:50:10.283Z,400
2018-03-24T05:50:50.852Z,412
2018-03-24T05:51:31.402Z,420
2018-03-24T05:52:12.023Z,432
2018-03-24T05:52:52.599Z,440
2018-03-24T05:53:33.258Z,452
2018-03-24T05:54:13.814Z,464
2018-03-24T05:54:54.448Z,476
2018-03-24T05:55:35.077Z,492
2018-03-24T05:58:03.172Z,540
2018-03-24T05:58:43.729Z,556
2018-03-24T05:59:24.280Z,576
2018-03-24T06:01:52.402Z,628
2018-03-24T06:02:32.967Z,640
2018-03-24T06:03:13.518Z,652
2018-03-24T06:03:54.078Z,664
2018-03-24T06:04:34.638Z,676
2018-03-24T06:05:15.185Z,688
2018-03-24T06:05:55.740Z,700
2018-03-24T06:06:36.401Z,704
2018-03-24T06:07:16.961Z,708
2018-03-24T06:07:57.527Z,716
2018-03-24T06:08:38.096Z,724
2018-03-24T06:09:18.668Z,732
2018-03-24T06:09:59.220Z,736
2018-03-24T06:10:39.785Z,744
2018-03-24T06:11:20.331Z,744
2018-03-24T06:12:00.922Z,752
2018-03-24T06:12:41.504Z,760
2018-03-24T06:13:22.031Z,768
2018-03-24T06:14:02.586Z,768
2018-03-24T06:14:43.128Z,776
2018-03-24T06:15:23.694Z,788
2018-03-24T06:16:04.263Z,792
2018-03-24T06:16:44.828Z,800
2018-03-24T06:17:25.407Z,800
2018-03-24T06:18:05.960Z,804
2018-03-24T06:18:46.516Z,804
2018-03-24T06:19:27.072Z,812
2018-03-24T06:20:07.625Z,812
2018-03-24T06:20:48.173Z,816
2018-03-24T06:21:28.736Z,824
2018-03-24T06:22:09.280Z,828
2018-03-24T06:22:49.832Z,832
2018-03-24T06:23:30.399Z,840
2018-03-24T06:24:10.962Z,848
2018-03-24T06:24:51.548Z,848
2018-03-24T06:25:32.112Z,852
2018-03-24T06:26:12.657Z,856
2018-03-24T06:26:53.218Z,860
2018-03-24T06:27:33.786Z,860
2018-03-24T06:28:14.485Z,860
2018-03-24T06:28:55.177Z,868
2018-03-24T06:29:36.164Z,884
2018-03-24T06:30:17.218Z,896
2018-03-24T06:30:58.503Z,916
2018-03-24T06:31:39.437Z,928
2018-03-24T06:32:20.558Z,944
2018-03-24T06:33:01.620Z,964
2018-03-24T06:33:42.913Z,984
2018-03-24T06:34:23.902Z,1000
2018-03-24T06:35:04.448Z,1024
2018-03-24T06:35:45.304Z,1044
2018-03-24T06:36:26.548Z,1064
2018-03-24T06:37:07.540Z,1088
2018-03-24T06:37:48.641Z,1108
2018-03-24T06:38:29.487Z,1128
2018-03-24T06:39:10.695Z,1144
2018-03-24T06:39:51.665Z,1156
2018-03-24T06:40:33.358Z,1164
2018-03-24T06:41:14.180Z,1176
2018-03-24T06:41:55.691Z,1176
2018-03-24T06:42:36.560Z,1184
2018-03-24T06:43:17.114Z,1188
2018-03-24T06:43:57.792Z,1196
2018-03-24T06:44:38.349Z,1204
2018-03-24T06:45:18.908Z,1208
2018-03-24T06:45:59.573Z,1200
2018-03-24T06:46:40.479Z,1204
2018-03-24T06:47:21.236Z,1220
2018-03-24T06:48:01.766Z,1224
2018-03-24T06:48:42.578Z,1236
2018-03-24T06:49:24.538Z,1256
2018-03-24T06:50:05.252Z,1276
2018-03-24T06:50:45.803Z,1292
2018-03-24T06:51:26.361Z,1308
2018-03-24T06:52:07.129Z,1328
2018-03-24T06:52:47.772Z,1344
2018-03-24T06:53:28.609Z,1360
2018-03-24T06:54:09.164Z,1372
2018-03-24T06:54:49.729Z,1376
2018-03-24T06:55:30.563Z,1372
2018-03-24T06:56:11.398Z,1360
2018-03-24T06:56:51.984Z,1352
2018-03-24T06:57:32.704Z,1348
2018-03-24T06:58:13.545Z,1344
2018-03-24T06:58:54.415Z,1344
2018-03-24T06:59:35.337Z,1356
2018-03-24T07:00:15.949Z,1380
2018-03-24T07:00:56.518Z,1400
2018-03-24T07:01:37.234Z,1412
2018-03-24T07:02:18.087Z,1424
2018-03-24T07:02:58.880Z,1440
2018-03-24T07:03:39.417Z,1460
2018-03-24T07:04:22.121Z,1480
2018-03-24T07:05:02.857Z,1508
2018-03-24T07:05:43.713Z,1536
2018-03-24T07:06:24.270Z,1572
2018-03-24T07:07:04.831Z,1600
2018-03-24T07:07:45.532Z,1632
2018-03-24T07:08:26.414Z,1660
2018-03-24T07:09:07.852Z,1680
2018-03-24T07:09:48.923Z,1700
2018-03-24T07:10:29.548Z,1724
2018-03-24T07:11:10.283Z,1748
2018-03-24T07:11:51.272Z,1772
2018-03-24T07:12:32.351Z,1796
2018-03-24T07:13:13.978Z,1824
2018-03-24T07:13:55.552Z,1848
2018-03-24T07:14:36.374Z,1872
2018-03-24T07:15:17.156Z,1884
2018-03-24T07:15:57.699Z,1888
2018-03-24T07:16:38.254Z,1892
2018-03-24T07:17:19.149Z,1896
2018-03-24T07:18:00.055Z,1900
2018-03-24T07:18:40.782Z,1904
2018-03-24T07:19:21.325Z,1916
2018-03-24T07:20:02.105Z,1932
2018-03-24T07:20:42.993Z,1956
2018-03-24T07:21:23.752Z,1984
2018-03-24T07:22:04.309Z,2020
2018-03-24T07:22:44.872Z,2040
2018-03-24T07:23:25.433Z,2068
2018-03-24T07:24:06.126Z,2084
2018-03-24T07:24:46.833Z,2108
2018-03-24T07:25:27.377Z,2128
2018-03-24T07:26:07.931Z,2136
2018-03-24T07:26:48.787Z,2136
2018-03-24T07:27:29.414Z,2148
2018-03-24T07:28:09.983Z,2172
2018-03-24T07:28:50.549Z,2168
2018-03-24T07:29:31.344Z,2156
2018-03-24T07:30:12.201Z,2168
2018-03-24T07:30:52.758Z,2188
2018-03-24T07:31:33.522Z,2216
2018-03-24T07:32:14.167Z,2220
2018-03-24T07:32:55.097Z,2228
2018-03-24T07:33:35.915Z,2216
2018-03-24T07:34:16.765Z,2208
2018-03-24T07:34:57.682Z,2192
2018-03-24T07:35:38.279Z,2180
2018-03-24T07:36:18.838Z,2168
2018-03-24T07:36:59.518Z,2176
2018-03-24T07:37:40.254Z,2200
2018-03-24T07:38:20.827Z,2228
2018-03-24T07:39:01.396Z,2252
2018-03-24T07:39:42.068Z,2276
2018-03-24T07:40:22.764Z,2288
2018-03-24T07:41:03.380Z,2316
2018-03-24T07:41:44.371Z,2344
2018-03-24T07:42:25.173Z,2376
2018-03-24T07:43:05.813Z,2400
2018-03-24T07:43:46.702Z,2428
2018-03-24T07:44:27.247Z,2452
2018-03-24T07:45:07.835Z,2472
2018-03-24T07:45:48.434Z,2476
2018-03-24T07:46:28.993Z,2492
2018-03-24T07:47:09.700Z,2516
2018-03-24T07:47:50.302Z,2540
2018-03-24T07:48:31.000Z,2560
2018-03-24T07:49:11.523Z,2580
2018-03-24T07:49:52.481Z,2580
2018-03-24T07:50:33.276Z,2576
2018-03-24T07:51:13.834Z,2584
2018-03-24T07:51:54.404Z,2608
2018-03-24T07:52:34.986Z,2624
2018-03-24T07:53:15.536Z,2636
2018-03-24T07:53:56.097Z,2660
2018-03-24T07:54:36.651Z,2696
2018-03-24T07:55:17.206Z,2720
2018-03-24T07:55:57.751Z,2692
2018-03-24T07:56:38.294Z,2688
2018-03-24T07:57:18.867Z,2700
2018-03-24T07:57:59.426Z,2696
2018-03-24T07:58:40.004Z,2668
2018-03-24T07:59:20.686Z,2624
2018-03-24T08:00:01.232Z,2592
2018-03-24T08:00:41.806Z,2564
2018-03-24T08:01:22.357Z,2532
2018-03-24T08:02:02.924Z,2516
2018-03-24T08:02:43.445Z,2520
2018-03-24T08:03:23.995Z,2528
2018-03-24T08:04:04.543Z,2524
2018-03-24T08:04:45.084Z,2520
2018-03-24T08:05:25.721Z,2504
2018-03-24T08:06:06.287Z,2496
2018-03-24T08:06:46.891Z,2500
2018-03-24T08:07:27.469Z,2512
2018-03-24T08:08:08.027Z,2532
2018-03-24T08:08:48.592Z,2564
2018-03-24T08:09:29.160Z,2608
2018-03-24T08:10:09.777Z,2648
2018-03-24T08:10:50.342Z,2692
2018-03-24T08:11:30.892Z,2732
2018-03-24T08:12:11.443Z,2768
2018-03-24T08:12:52.018Z,2792
2018-03-24T08:13:32.642Z,2812
2018-03-24T08:14:13.365Z,2844
2018-03-24T08:14:54.271Z,2880
2018-03-24T08:15:34.876Z,2916
2018-03-24T08:16:15.804Z,2972
2018-03-24T08:16:56.518Z,3044
2018-03-24T08:17:37.355Z,3108
2018-03-24T08:18:18.258Z,3156
2018-03-24T08:18:59.023Z,3208
2018-03-24T08:19:39.747Z,3276
2018-03-24T08:20:20.586Z,3324
2018-03-24T08:21:01.172Z,3352
2018-03-24T08:21:41.916Z,3364
2018-03-24T08:22:22.462Z,3364
2018-03-24T08:23:03.504Z,3360
2018-03-24T08:23:44.395Z,3360
2018-03-24T08:24:25.172Z,3352
2018-03-24T08:25:05.792Z,3280
2018-03-24T08:25:47.417Z,3180
2018-03-24T08:26:28.015Z,3132
2018-03-24T08:27:08.564Z,3116
2018-03-24T08:27:49.151Z,3116
2018-03-24T08:28:29.705Z,3148
2018-03-24T08:29:10.249Z,3172
2018-03-24T08:29:50.849Z,3188
2018-03-24T08:30:31.363Z,3204
2018-03-24T08:31:11.938Z,3240
2018-03-24T08:31:52.491Z,3276
2018-03-24T08:32:33.128Z,3320
2018-03-24T08:33:14.021Z,3352
2018-03-24T08:33:54.507Z,3392
2018-03-24T08:34:35.060Z,3436
2018-03-24T08:35:15.626Z,3476
2018-03-24T08:35:56.179Z,3532
2018-03-24T08:36:36.729Z,3568
2018-03-24T08:37:17.306Z,3596
2018-03-24T08:37:57.857Z,3640
2018-03-24T08:38:38.424Z,3684
2018-03-24T08:39:18.991Z,3696
2018-03-24T08:39:59.554Z,3664
2018-03-24T08:40:40.114Z,3600
2018-03-24T08:41:20.649Z,3548
2018-03-24T08:42:01.213Z,3492
2018-03-24T08:42:41.760Z,3420
2018-03-24T08:43:22.312Z,3360
2018-03-24T08:44:02.878Z,3332
2018-03-24T08:44:43.494Z,3324
2018-03-24T08:45:23.988Z,3312
2018-03-24T08:46:04.560Z,3280
2018-03-24T08:46:45.112Z,3252
2018-03-24T08:47:25.688Z,3252
2018-03-24T08:48:06.241Z,3248
2018-03-24T08:48:46.791Z,3236
2018-03-24T08:49:27.353Z,3224
2018-03-24T08:50:07.938Z,3216
2018-03-24T08:50:48.470Z,3232
2018-03-24T08:51:29.036Z,3276
2018-03-24T08:52:09.575Z,3320
2018-03-24T08:52:50.187Z,3368
2018-03-24T08:53:30.731Z,3420
2018-03-24T08:54:11.297Z,3460
2018-03-24T08:54:53.117Z,3500
2018-03-24T08:55:34.087Z,3536
2018-03-24T08:56:14.740Z,3572
2018-03-24T08:56:55.445Z,3620
2018-03-24T08:57:36.225Z,3680
2018-03-24T08:58:16.982Z,3748
2018-03-24T08:58:57.686Z,3808
2018-03-24T08:59:38.504Z,3868
2018-03-24T09:00:19.310Z,3908
2018-03-24T09:00:59.989Z,3924
2018-03-24T09:01:40.557Z,3924
2018-03-24T09:02:21.104Z,3920
2018-03-24T09:03:01.672Z,3900
2018-03-24T09:03:42.419Z,3904
2018-03-24T09:04:23.366Z,3944
2018-03-24T09:05:04.056Z,3996
2018-03-24T09:05:44.818Z,4060
2018-03-24T09:06:25.550Z,4132
2018-03-24T09:07:06.227Z,4212
2018-03-24T09:07:47.052Z,4280
2018-03-24T09:08:28.105Z,4328
2018-03-24T09:09:08.756Z,4388
2018-03-24T09:09:49.548Z,4456
2018-03-24T09:10:30.337Z,4548
2018-03-24T09:11:10.980Z,4644
2018-03-24T09:11:51.641Z,4724
2018-03-24T09:12:32.188Z,4776
2018-03-24T09:13:12.855Z,4796
2018-03-24T09:13:53.733Z,4764
2018-03-24T09:14:34.525Z,4708
2018-03-24T09:15:15.268Z,4656
2018-03-24T09:15:56.030Z,4632
2018-03-24T09:16:36.773Z,4632
2018-03-24T09:17:17.845Z,4660
2018-03-24T09:17:58.546Z,4700
2018-03-24T09:18:39.118Z,4708
2018-03-24T09:19:19.739Z,4708
2018-03-24T09:20:00.445Z,4752
2018-03-24T09:20:41.080Z,4812
2018-03-24T09:21:21.642Z,4836
2018-03-24T09:22:02.211Z,4856
2018-03-24T09:22:42.774Z,4888
2018-03-24T09:23:24.191Z,4908
2018-03-24T09:24:04.691Z,4972
2018-03-24T09:24:45.254Z,5072
2018-03-24T09:25:25.810Z,5140
2018-03-24T09:26:06.339Z,5172
2018-03-24T09:26:46.868Z,5136
2018-03-24T09:27:27.437Z,5096
2018-03-24T09:28:08.058Z,5092
2018-03-24T09:28:48.722Z,5084
2018-03-24T09:29:29.204Z,4984
2018-03-24T09:30:10.374Z,4904
2018-03-24T09:30:51.021Z,4884
2018-03-24T09:31:31.573Z,4860
2018-03-24T09:32:12.301Z,4820
2018-03-24T09:32:53.244Z,4788
2018-03-24T09:33:33.747Z,4840
2018-03-24T09:34:14.561Z,4948
2018-03-24T09:34:55.285Z,5056
2018-03-24T09:35:36.012Z,5132
2018-03-24T09:36:16.538Z,5136
2018-03-24T09:36:57.437Z,5096
2018-03-24T09:37:38.387Z,5116
2018-03-24T09:38:19.448Z,5148
2018-03-24T09:39:00.148Z,5144
2018-03-24T09:39:40.853Z,5156
2018-03-24T09:40:21.761Z,5188